sensor_id;sensor_type;location;lat;lon;timestamp;P1;durP1;ratioP1;P2;durP2;ratioP2
32214;SDS011;18708;53.124;23.190;2024-01-15T00:02:15;16.50;;;10.85;;
32214;SDS011;18708;53.124;23.190;2024-01-15T00:04:42;19.23;;;11.85;;
32214;SDS011;18708;53.124;23.190;2024-01-15T00:07:08;19.98;;;11.38;;
32214;SDS011;18708;53.124;23.190;2024-01-15T00:09:34;17.67;;;11.18;;
32214;SDS011;18708;53.124;23.190;2024-01-15T00:12:00;18.05;;;11.05;;
32214;SDS011;18708;53.124;23.190;2024-01-15T00:14:27;15.82;;;10.65;;
32214;SDS011;18708;53.124;23.190;2024-01-15T00:16:53;17.20;;;11.02;;
32214;SDS011;18708;53.124;23.190;2024-01-15T00:19:20;17.48;;;12.27;;
32214;SDS011;18708;53.124;23.190;2024-01-15T00:21:46;17.15;;;11.68;;
32214;SDS011;18708;53.124;23.190;2024-01-15T00:24:12;15.52;;;10.98;;
32214;SDS011;18708;53.124;23.190;2024-01-15T00:26:38;15.52;;;10.93;;
32214;SDS011;18708;53.124;23.190;2024-01-15T00:29:04;18.52;;;12.00;;
32214;SDS011;18708;53.124;23.190;2024-01-15T00:31:32;16.30;;;11.55;;
32214;SDS011;18708;53.124;23.190;2024-01-15T00:33:57;15.75;;;11.55;;
32214;SDS011;18708;53.124;23.190;2024-01-15T00:36:23;16.75;;;11.75;;
32214;SDS011;18708;53.124;23.190;2024-01-15T00:38:49;18.48;;;12.68;;
32214;SDS011;18708;53.124;23.190;2024-01-15T00:41:15;18.65;;;11.88;;
32214;SDS011;18708;53.124;23.190;2024-01-15T00:43:41;20.88;;;14.20;;
32214;SDS011;18708;53.124;23.190;2024-01-15T00:46:06;21.35;;;12.57;;
32214;SDS011;18708;53.124;23.190;2024-01-15T00:48:32;19.13;;;12.60;;
32214;SDS011;18708;53.124;23.190;2024-01-15T00:50:58;21.42;;;13.20;;
32214;SDS011;18708;53.124;23.190;2024-01-15T00:53:25;18.05;;;12.18;;
32214;SDS011;18708;53.124;23.190;2024-01-15T00:55:51;17.92;;;12.20;;
32214;SDS011;18708;53.124;23.190;2024-01-15T00:58:16;18.35;;;12.35;;
32214;SDS011;18708;53.124;23.190;2024-01-15T01:00:42;18.65;;;12.48;;
32214;SDS011;18708;53.124;23.190;2024-01-15T01:03:08;16.52;;;12.07;;
32214;SDS011;18708;53.124;23.190;2024-01-15T01:05:34;15.85;;;12.18;;
32214;SDS011;18708;53.124;23.190;2024-01-15T01:08:00;16.88;;;11.68;;
32214;SDS011;18708;53.124;23.190;2024-01-15T01:10:26;17.85;;;12.50;;
32214;SDS011;18708;53.124;23.190;2024-01-15T01:12:52;15.90;;;10.82;;
32214;SDS011;18708;53.124;23.190;2024-01-15T01:15:17;16.88;;;12.30;;
32214;SDS011;18708;53.124;23.190;2024-01-15T01:17:43;15.80;;;11.35;;
32214;SDS011;18708;53.124;23.190;2024-01-15T01:20:09;17.23;;;11.65;;
32214;SDS011;18708;53.124;23.190;2024-01-15T01:22:35;17.23;;;12.43;;
32214;SDS011;18708;53.124;23.190;2024-01-15T01:25:01;19.73;;;14.63;;
32214;SDS011;18708;53.124;23.190;2024-01-15T01:27:27;17.70;;;12.30;;
32214;SDS011;18708;53.124;23.190;2024-01-15T01:29:53;16.40;;;11.68;;
32214;SDS011;18708;53.124;23.190;2024-01-15T01:32:19;17.48;;;12.45;;
32214;SDS011;18708;53.124;23.190;2024-01-15T01:34:45;19.05;;;12.48;;
32214;SDS011;18708;53.124;23.190;2024-01-15T01:37:10;21.60;;;12.68;;
32214;SDS011;18708;53.124;23.190;2024-01-15T01:39:40;18.48;;;11.55;;
32214;SDS011;18708;53.124;23.190;2024-01-15T01:42:08;16.17;;;11.55;;
32214;SDS011;18708;53.124;23.190;2024-01-15T01:44:34;18.63;;;12.20;;
32214;SDS011;18708;53.124;23.190;2024-01-15T01:47:01;17.30;;;11.38;;
32214;SDS011;18708;53.124;23.190;2024-01-15T01:49:28;16.17;;;11.70;;
32214;SDS011;18708;53.124;23.190;2024-01-15T01:51:57;19.20;;;12.98;;
32214;SDS011;18708;53.124;23.190;2024-01-15T01:54:25;18.10;;;12.18;;
32214;SDS011;18708;53.124;23.190;2024-01-15T01:56:54;18.30;;;12.30;;
32214;SDS011;18708;53.124;23.190;2024-01-15T01:59:20;17.38;;;12.88;;
32214;SDS011;18708;53.124;23.190;2024-01-15T02:01:48;17.55;;;12.60;;
32214;SDS011;18708;53.124;23.190;2024-01-15T02:04:14;16.10;;;12.10;;
32214;SDS011;18708;53.124;23.190;2024-01-15T02:06:41;20.17;;;12.35;;
32214;SDS011;18708;53.124;23.190;2024-01-15T02:09:07;20.05;;;12.45;;
32214;SDS011;18708;53.124;23.190;2024-01-15T02:11:34;17.30;;;11.90;;
32214;SDS011;18708;53.124;23.190;2024-01-15T02:14:00;21.52;;;13.70;;
32214;SDS011;18708;53.124;23.190;2024-01-15T02:16:26;20.40;;;13.60;;
32214;SDS011;18708;53.124;23.190;2024-01-15T02:18:51;18.65;;;13.55;;
32214;SDS011;18708;53.124;23.190;2024-01-15T02:21:17;19.77;;;13.25;;
32214;SDS011;18708;53.124;23.190;2024-01-15T02:23:43;19.70;;;13.98;;
32214;SDS011;18708;53.124;23.190;2024-01-15T02:26:08;19.90;;;14.32;;
32214;SDS011;18708;53.124;23.190;2024-01-15T02:28:34;22.48;;;13.15;;
32214;SDS011;18708;53.124;23.190;2024-01-15T02:31:00;22.00;;;13.45;;
32214;SDS011;18708;53.124;23.190;2024-01-15T02:33:26;20.40;;;13.73;;
32214;SDS011;18708;53.124;23.190;2024-01-15T02:35:51;21.00;;;14.20;;
32214;SDS011;18708;53.124;23.190;2024-01-15T02:38:17;22.50;;;14.60;;
32214;SDS011;18708;53.124;23.190;2024-01-15T02:40:43;21.45;;;13.52;;
32214;SDS011;18708;53.124;23.190;2024-01-15T02:43:12;26.42;;;15.82;;
32214;SDS011;18708;53.124;23.190;2024-01-15T02:45:38;27.17;;;16.58;;
32214;SDS011;18708;53.124;23.190;2024-01-15T02:48:04;24.23;;;16.10;;
32214;SDS011;18708;53.124;23.190;2024-01-15T02:50:30;22.20;;;14.63;;
32214;SDS011;18708;53.124;23.190;2024-01-15T02:52:56;25.63;;;15.73;;
32214;SDS011;18708;53.124;23.190;2024-01-15T02:55:22;24.38;;;15.27;;
32214;SDS011;18708;53.124;23.190;2024-01-15T02:57:47;26.52;;;17.35;;
32214;SDS011;18708;53.124;23.190;2024-01-15T03:00:13;25.42;;;16.73;;
32214;SDS011;18708;53.124;23.190;2024-01-15T03:02:40;28.17;;;15.63;;
32214;SDS011;18708;53.124;23.190;2024-01-15T03:05:08;24.98;;;17.95;;
32214;SDS011;18708;53.124;23.190;2024-01-15T03:07:34;26.30;;;16.77;;
32214;SDS011;18708;53.124;23.190;2024-01-15T03:10:00;28.88;;;16.77;;
32214;SDS011;18708;53.124;23.190;2024-01-15T03:12:26;28.25;;;16.55;;
32214;SDS011;18708;53.124;23.190;2024-01-15T03:14:51;25.77;;;17.02;;
32214;SDS011;18708;53.124;23.190;2024-01-15T03:17:17;27.23;;;17.58;;
32214;SDS011;18708;53.124;23.190;2024-01-15T03:19:43;25.63;;;16.50;;
32214;SDS011;18708;53.124;23.190;2024-01-15T03:22:08;25.02;;;16.27;;
32214;SDS011;18708;53.124;23.190;2024-01-15T03:24:34;25.92;;;17.00;;
32214;SDS011;18708;53.124;23.190;2024-01-15T03:27:01;26.48;;;16.55;;
32214;SDS011;18708;53.124;23.190;2024-01-15T03:29:27;24.42;;;16.00;;
32214;SDS011;18708;53.124;23.190;2024-01-15T03:31:53;25.42;;;16.27;;
32214;SDS011;18708;53.124;23.190;2024-01-15T03:34:18;25.73;;;17.60;;
32214;SDS011;18708;53.124;23.190;2024-01-15T03:36:44;23.00;;;15.43;;
32214;SDS011;18708;53.124;23.190;2024-01-15T03:39:10;24.75;;;16.90;;
32214;SDS011;18708;53.124;23.190;2024-01-15T03:41:35;26.67;;;16.77;;
32214;SDS011;18708;53.124;23.190;2024-01-15T03:44:01;27.27;;;19.27;;
32214;SDS011;18708;53.124;23.190;2024-01-15T03:46:27;25.30;;;17.02;;
32214;SDS011;18708;53.124;23.190;2024-01-15T03:48:55;30.27;;;17.65;;
32214;SDS011;18708;53.124;23.190;2024-01-15T03:51:21;27.75;;;15.90;;
32214;SDS011;18708;53.124;23.190;2024-01-15T03:53:46;24.83;;;16.90;;
32214;SDS011;18708;53.124;23.190;2024-01-15T03:56:12;27.25;;;16.67;;
32214;SDS011;18708;53.124;23.190;2024-01-15T03:58:38;23.30;;;14.82;;
32214;SDS011;18708;53.124;23.190;2024-01-15T04:01:07;24.23;;;14.82;;
32214;SDS011;18708;53.124;23.190;2024-01-15T04:03:34;21.92;;;15.00;;
32214;SDS011;18708;53.124;23.190;2024-01-15T04:05:59;21.73;;;15.57;;
32214;SDS011;18708;53.124;23.190;2024-01-15T04:08:25;23.25;;;15.65;;
32214;SDS011;18708;53.124;23.190;2024-01-15T04:10:50;23.95;;;15.73;;
32214;SDS011;18708;53.124;23.190;2024-01-15T04:13:16;25.33;;;16.27;;
32214;SDS011;18708;53.124;23.190;2024-01-15T04:15:42;26.30;;;17.42;;
32214;SDS011;18708;53.124;23.190;2024-01-15T04:18:07;27.38;;;19.08;;
32214;SDS011;18708;53.124;23.190;2024-01-15T04:20:33;24.80;;;18.77;;
32214;SDS011;18708;53.124;23.190;2024-01-15T04:22:59;25.23;;;16.48;;
32214;SDS011;18708;53.124;23.190;2024-01-15T04:25:24;26.40;;;18.00;;
32214;SDS011;18708;53.124;23.190;2024-01-15T04:27:50;25.10;;;16.13;;
32214;SDS011;18708;53.124;23.190;2024-01-15T04:30:16;23.95;;;16.70;;
32214;SDS011;18708;53.124;23.190;2024-01-15T04:32:41;26.10;;;16.77;;
32214;SDS011;18708;53.124;23.190;2024-01-15T04:35:07;25.38;;;17.42;;
32214;SDS011;18708;53.124;23.190;2024-01-15T04:37:35;24.58;;;17.17;;
32214;SDS011;18708;53.124;23.190;2024-01-15T04:40:01;25.95;;;17.92;;
32214;SDS011;18708;53.124;23.190;2024-01-15T04:42:28;22.85;;;15.18;;
32214;SDS011;18708;53.124;23.190;2024-01-15T04:44:54;25.60;;;17.20;;
32214;SDS011;18708;53.124;23.190;2024-01-15T04:47:20;24.63;;;16.73;;
32214;SDS011;18708;53.124;23.190;2024-01-15T04:49:45;28.88;;;18.50;;
32214;SDS011;18708;53.124;23.190;2024-01-15T04:52:11;23.80;;;15.50;;
32214;SDS011;18708;53.124;23.190;2024-01-15T04:54:37;21.58;;;15.73;;
32214;SDS011;18708;53.124;23.190;2024-01-15T04:57:03;24.65;;;16.73;;
32214;SDS011;18708;53.124;23.190;2024-01-15T04:59:29;26.08;;;16.75;;
32214;SDS011;18708;53.124;23.190;2024-01-15T05:01:54;26.38;;;15.55;;
32214;SDS011;18708;53.124;23.190;2024-01-15T05:04:23;23.48;;;18.30;;
32214;SDS011;18708;53.124;23.190;2024-01-15T05:06:50;23.25;;;15.95;;
32214;SDS011;18708;53.124;23.190;2024-01-15T05:09:15;21.92;;;15.70;;
32214;SDS011;18708;53.124;23.190;2024-01-15T05:11:42;23.33;;;16.60;;
32214;SDS011;18708;53.124;23.190;2024-01-15T05:14:08;28.55;;;16.75;;
32214;SDS011;18708;53.124;23.190;2024-01-15T05:16:39;30.42;;;18.88;;
32214;SDS011;18708;53.124;23.190;2024-01-15T05:19:11;31.55;;;18.33;;
32214;SDS011;18708;53.124;23.190;2024-01-15T05:21:37;25.38;;;16.63;;
32214;SDS011;18708;53.124;23.190;2024-01-15T05:24:02;23.23;;;16.40;;
32214;SDS011;18708;53.124;23.190;2024-01-15T05:26:28;25.95;;;16.50;;
32214;SDS011;18708;53.124;23.190;2024-01-15T05:28:54;25.73;;;16.70;;
32214;SDS011;18708;53.124;23.190;2024-01-15T05:31:19;25.83;;;18.58;;
32214;SDS011;18708;53.124;23.190;2024-01-15T05:33:45;28.80;;;20.85;;
32214;SDS011;18708;53.124;23.190;2024-01-15T05:36:12;21.20;;;14.90;;
32214;SDS011;18708;53.124;23.190;2024-01-15T05:38:38;23.60;;;16.55;;
32214;SDS011;18708;53.124;23.190;2024-01-15T05:41:04;23.10;;;16.45;;
32214;SDS011;18708;53.124;23.190;2024-01-15T05:43:30;27.08;;;17.27;;
32214;SDS011;18708;53.124;23.190;2024-01-15T05:45:56;25.25;;;15.65;;
32214;SDS011;18708;53.124;23.190;2024-01-15T05:48:23;27.80;;;18.23;;
32214;SDS011;18708;53.124;23.190;2024-01-15T05:50:48;30.02;;;19.50;;
32214;SDS011;18708;53.124;23.190;2024-01-15T05:53:14;31.70;;;19.63;;
32214;SDS011;18708;53.124;23.190;2024-01-15T05:55:40;28.83;;;19.33;;
32214;SDS011;18708;53.124;23.190;2024-01-15T05:58:06;29.20;;;18.38;;
32214;SDS011;18708;53.124;23.190;2024-01-15T06:00:34;25.92;;;17.33;;
32214;SDS011;18708;53.124;23.190;2024-01-15T06:03:00;25.35;;;17.20;;
32214;SDS011;18708;53.124;23.190;2024-01-15T06:05:26;27.98;;;17.10;;
32214;SDS011;18708;53.124;23.190;2024-01-15T06:07:52;29.88;;;19.10;;
32214;SDS011;18708;53.124;23.190;2024-01-15T06:10:18;25.48;;;17.13;;
32214;SDS011;18708;53.124;23.190;2024-01-15T06:12:44;27.27;;;17.05;;
32214;SDS011;18708;53.124;23.190;2024-01-15T06:15:10;28.73;;;19.90;;
32214;SDS011;18708;53.124;23.190;2024-01-15T06:17:36;29.55;;;19.25;;
32214;SDS011;18708;53.124;23.190;2024-01-15T06:20:02;28.67;;;18.55;;
32214;SDS011;18708;53.124;23.190;2024-01-15T06:22:28;32.40;;;21.08;;
32214;SDS011;18708;53.124;23.190;2024-01-15T06:24:54;28.10;;;18.08;;
32214;SDS011;18708;53.124;23.190;2024-01-15T06:27:20;29.10;;;18.60;;
32214;SDS011;18708;53.124;23.190;2024-01-15T06:29:46;31.23;;;19.90;;
32214;SDS011;18708;53.124;23.190;2024-01-15T06:32:12;33.05;;;20.40;;
32214;SDS011;18708;53.124;23.190;2024-01-15T06:34:38;29.55;;;19.70;;
32214;SDS011;18708;53.124;23.190;2024-01-15T06:37:04;32.05;;;20.83;;
32214;SDS011;18708;53.124;23.190;2024-01-15T06:39:29;27.85;;;20.85;;
32214;SDS011;18708;53.124;23.190;2024-01-15T06:41:55;34.03;;;21.13;;
32214;SDS011;18708;53.124;23.190;2024-01-15T06:44:21;31.25;;;20.63;;
32214;SDS011;18708;53.124;23.190;2024-01-15T06:46:47;31.83;;;20.00;;
32214;SDS011;18708;53.124;23.190;2024-01-15T06:49:12;31.38;;;19.88;;
32214;SDS011;18708;53.124;23.190;2024-01-15T06:51:38;32.58;;;20.40;;
32214;SDS011;18708;53.124;23.190;2024-01-15T06:54:04;33.50;;;19.70;;
32214;SDS011;18708;53.124;23.190;2024-01-15T06:56:31;30.77;;;18.73;;
32214;SDS011;18708;53.124;23.190;2024-01-15T06:58:57;35.75;;;21.58;;
32214;SDS011;18708;53.124;23.190;2024-01-15T07:01:23;37.25;;;21.65;;
32214;SDS011;18708;53.124;23.190;2024-01-15T07:03:48;38.92;;;22.02;;
32214;SDS011;18708;53.124;23.190;2024-01-15T07:06:14;34.30;;;20.83;;
32214;SDS011;18708;53.124;23.190;2024-01-15T07:08:41;28.92;;;18.70;;
32214;SDS011;18708;53.124;23.190;2024-01-15T07:11:06;31.52;;;19.52;;
32214;SDS011;18708;53.124;23.190;2024-01-15T07:13:33;31.38;;;18.98;;
32214;SDS011;18708;53.124;23.190;2024-01-15T07:15:59;42.47;;;21.80;;
32214;SDS011;18708;53.124;23.190;2024-01-15T07:18:24;34.58;;;19.73;;
32214;SDS011;18708;53.124;23.190;2024-01-15T07:20:50;41.10;;;22.33;;
32214;SDS011;18708;53.124;23.190;2024-01-15T07:23:16;36.83;;;22.08;;
32214;SDS011;18708;53.124;23.190;2024-01-15T07:25:42;35.70;;;21.98;;
32214;SDS011;18708;53.124;23.190;2024-01-15T07:28:08;32.70;;;20.73;;
32214;SDS011;18708;53.124;23.190;2024-01-15T07:30:34;35.63;;;21.10;;
32214;SDS011;18708;53.124;23.190;2024-01-15T07:33:00;33.95;;;20.80;;
32214;SDS011;18708;53.124;23.190;2024-01-15T07:35:29;37.20;;;21.40;;
32214;SDS011;18708;53.124;23.190;2024-01-15T07:37:57;38.75;;;22.10;;
32214;SDS011;18708;53.124;23.190;2024-01-15T07:40:23;42.08;;;23.45;;
32214;SDS011;18708;53.124;23.190;2024-01-15T07:42:50;37.00;;;24.30;;
32214;SDS011;18708;53.124;23.190;2024-01-15T07:45:16;42.13;;;23.13;;
32214;SDS011;18708;53.124;23.190;2024-01-15T07:47:42;39.35;;;25.63;;
32214;SDS011;18708;53.124;23.190;2024-01-15T07:50:09;41.55;;;24.70;;
32214;SDS011;18708;53.124;23.190;2024-01-15T07:52:35;38.83;;;21.95;;
32214;SDS011;18708;53.124;23.190;2024-01-15T07:55:01;43.25;;;24.33;;
32214;SDS011;18708;53.124;23.190;2024-01-15T07:57:28;37.22;;;25.23;;
32214;SDS011;18708;53.124;23.190;2024-01-15T07:59:54;36.65;;;21.70;;
32214;SDS011;18708;53.124;23.190;2024-01-15T08:02:20;36.55;;;21.83;;
32214;SDS011;18708;53.124;23.190;2024-01-15T08:04:46;34.30;;;23.55;;
32214;SDS011;18708;53.124;23.190;2024-01-15T08:07:12;38.83;;;22.80;;
32214;SDS011;18708;53.124;23.190;2024-01-15T08:09:40;37.15;;;22.92;;
32214;SDS011;18708;53.124;23.190;2024-01-15T08:12:06;39.38;;;22.52;;
32214;SDS011;18708;53.124;23.190;2024-01-15T08:14:32;40.00;;;22.88;;
32214;SDS011;18708;53.124;23.190;2024-01-15T08:16:58;37.63;;;23.25;;
32214;SDS011;18708;53.124;23.190;2024-01-15T08:19:24;36.08;;;27.00;;
32214;SDS011;18708;53.124;23.190;2024-01-15T08:21:52;37.50;;;21.33;;
32214;SDS011;18708;53.124;23.190;2024-01-15T08:24:18;38.15;;;23.27;;
32214;SDS011;18708;53.124;23.190;2024-01-15T08:26:43;36.03;;;21.92;;
32214;SDS011;18708;53.124;23.190;2024-01-15T08:29:10;36.67;;;20.77;;
32214;SDS011;18708;53.124;23.190;2024-01-15T08:31:36;38.83;;;26.95;;
32214;SDS011;18708;53.124;23.190;2024-01-15T08:34:01;35.75;;;21.67;;
32214;SDS011;18708;53.124;23.190;2024-01-15T08:36:27;39.15;;;23.35;;
32214;SDS011;18708;53.124;23.190;2024-01-15T08:38:56;33.42;;;21.58;;
32214;SDS011;18708;53.124;23.190;2024-01-15T08:41:22;36.85;;;21.85;;
32214;SDS011;18708;53.124;23.190;2024-01-15T08:43:50;35.88;;;22.80;;
32214;SDS011;18708;53.124;23.190;2024-01-15T08:46:18;38.00;;;22.83;;
32214;SDS011;18708;53.124;23.190;2024-01-15T08:48:43;40.40;;;24.67;;
32214;SDS011;18708;53.124;23.190;2024-01-15T08:51:11;35.55;;;22.05;;
32214;SDS011;18708;53.124;23.190;2024-01-15T08:53:39;37.95;;;23.00;;
32214;SDS011;18708;53.124;23.190;2024-01-15T08:56:05;41.10;;;24.90;;
32214;SDS011;18708;53.124;23.190;2024-01-15T08:58:31;41.85;;;26.02;;
32214;SDS011;18708;53.124;23.190;2024-01-15T09:00:56;32.78;;;20.67;;
32214;SDS011;18708;53.124;23.190;2024-01-15T09:03:22;40.40;;;24.67;;
32214;SDS011;18708;53.124;23.190;2024-01-15T09:05:48;38.55;;;22.92;;
32214;SDS011;18708;53.124;23.190;2024-01-15T09:08:15;39.92;;;23.35;;
32214;SDS011;18708;53.124;23.190;2024-01-15T09:10:40;35.67;;;24.40;;
32214;SDS011;18708;53.124;23.190;2024-01-15T09:13:06;35.17;;;22.35;;
32214;SDS011;18708;53.124;23.190;2024-01-15T09:15:33;35.88;;;21.67;;
32214;SDS011;18708;53.124;23.190;2024-01-15T09:17:58;36.70;;;22.42;;
32214;SDS011;18708;53.124;23.190;2024-01-15T09:20:26;39.72;;;22.70;;
32214;SDS011;18708;53.124;23.190;2024-01-15T09:22:52;36.22;;;24.92;;
32214;SDS011;18708;53.124;23.190;2024-01-15T09:25:18;34.25;;;21.75;;
32214;SDS011;18708;53.124;23.190;2024-01-15T09:27:44;39.80;;;23.45;;
32214;SDS011;18708;53.124;23.190;2024-01-15T09:30:09;42.42;;;27.33;;
32214;SDS011;18708;53.124;23.190;2024-01-15T09:32:36;34.40;;;22.38;;
32214;SDS011;18708;53.124;23.190;2024-01-15T09:35:01;34.97;;;22.48;;
32214;SDS011;18708;53.124;23.190;2024-01-15T09:37:27;35.58;;;22.52;;
32214;SDS011;18708;53.124;23.190;2024-01-15T09:39:53;35.30;;;21.27;;
32214;SDS011;18708;53.124;23.190;2024-01-15T09:42:20;31.60;;;20.67;;
32214;SDS011;18708;53.124;23.190;2024-01-15T09:44:48;34.35;;;22.13;;
32214;SDS011;18708;53.124;23.190;2024-01-15T09:47:14;31.38;;;19.30;;
32214;SDS011;18708;53.124;23.190;2024-01-15T09:49:41;109.93;;;74.53;;
32214;SDS011;18708;53.124;23.190;2024-01-15T09:52:07;108.55;;;67.65;;
32214;SDS011;18708;53.124;23.190;2024-01-15T09:54:34;125.85;;;72.43;;
32214;SDS011;18708;53.124;23.190;2024-01-15T09:57:00;36.17;;;23.15;;
32214;SDS011;18708;53.124;23.190;2024-01-15T09:59:26;35.10;;;25.20;;
32214;SDS011;18708;53.124;23.190;2024-01-15T10:01:53;41.63;;;30.40;;
32214;SDS011;18708;53.124;23.190;2024-01-15T10:04:20;82.78;;;53.50;;
32214;SDS011;18708;53.124;23.190;2024-01-15T10:06:46;52.22;;;34.72;;
32214;SDS011;18708;53.124;23.190;2024-01-15T10:09:13;39.85;;;29.65;;
32214;SDS011;18708;53.124;23.190;2024-01-15T10:11:42;42.92;;;29.00;;
32214;SDS011;18708;53.124;23.190;2024-01-15T10:14:09;36.33;;;25.60;;
32214;SDS011;18708;53.124;23.190;2024-01-15T10:16:37;41.95;;;26.70;;
32214;SDS011;18708;53.124;23.190;2024-01-15T10:19:04;45.53;;;31.48;;
32214;SDS011;18708;53.124;23.190;2024-01-15T10:21:31;38.40;;;23.23;;
32214;SDS011;18708;53.124;23.190;2024-01-15T10:24:03;31.33;;;21.85;;
32214;SDS011;18708;53.124;23.190;2024-01-15T10:26:29;45.60;;;32.45;;
32214;SDS011;18708;53.124;23.190;2024-01-15T10:28:56;27.80;;;20.33;;
32214;SDS011;18708;53.124;23.190;2024-01-15T10:31:24;38.58;;;24.77;;
32214;SDS011;18708;53.124;23.190;2024-01-15T10:33:51;29.90;;;20.48;;
32214;SDS011;18708;53.124;23.190;2024-01-15T10:36:17;32.42;;;23.20;;
32214;SDS011;18708;53.124;23.190;2024-01-15T10:38:43;31.15;;;22.05;;
32214;SDS011;18708;53.124;23.190;2024-01-15T10:41:12;28.10;;;19.55;;
32214;SDS011;18708;53.124;23.190;2024-01-15T10:43:38;26.15;;;18.02;;
32214;SDS011;18708;53.124;23.190;2024-01-15T10:46:06;74.40;;;45.90;;
32214;SDS011;18708;53.124;23.190;2024-01-15T10:48:33;68.43;;;40.35;;
32214;SDS011;18708;53.124;23.190;2024-01-15T10:51:00;106.90;;;60.85;;
32214;SDS011;18708;53.124;23.190;2024-01-15T10:53:35;99.90;;;64.40;;
32214;SDS011;18708;53.124;23.190;2024-01-15T10:56:05;71.07;;;47.03;;
32214;SDS011;18708;53.124;23.190;2024-01-15T10:58:35;63.08;;;42.35;;
32214;SDS011;18708;53.124;23.190;2024-01-15T11:01:04;68.25;;;44.65;;
32214;SDS011;18708;53.124;23.190;2024-01-15T11:03:33;35.55;;;25.98;;
32214;SDS011;18708;53.124;23.190;2024-01-15T11:05:59;42.42;;;32.20;;
32214;SDS011;18708;53.124;23.190;2024-01-15T11:08:25;28.30;;;21.08;;
32214;SDS011;18708;53.124;23.190;2024-01-15T11:10:51;23.83;;;14.35;;
32214;SDS011;18708;53.124;23.190;2024-01-15T11:16:02;19.70;;;13.70;;
32214;SDS011;18708;53.124;23.190;2024-01-15T11:21:27;20.02;;;14.52;;
32214;SDS011;18708;53.124;23.190;2024-01-15T11:26:29;24.42;;;14.93;;
32214;SDS011;18708;53.124;23.190;2024-01-15T11:29:00;27.85;;;18.08;;
32214;SDS011;18708;53.124;23.190;2024-01-15T11:33:55;18.08;;;9.98;;
32214;SDS011;18708;53.124;23.190;2024-01-15T11:42:02;12.80;;;8.27;;
32214;SDS011;18708;53.124;23.190;2024-01-15T11:44:29;14.32;;;9.10;;
32214;SDS011;18708;53.124;23.190;2024-01-15T11:52:06;14.75;;;9.88;;
32214;SDS011;18708;53.124;23.190;2024-01-15T11:54:33;14.85;;;9.05;;
32214;SDS011;18708;53.124;23.190;2024-01-15T11:57:03;14.65;;;9.38;;
32214;SDS011;18708;53.124;23.190;2024-01-15T11:59:34;15.25;;;10.68;;
32214;SDS011;18708;53.124;23.190;2024-01-15T12:02:02;14.38;;;10.43;;
32214;SDS011;18708;53.124;23.190;2024-01-15T12:04:30;14.35;;;10.00;;
32214;SDS011;18708;53.124;23.190;2024-01-15T12:06:56;13.00;;;9.77;;
32214;SDS011;18708;53.124;23.190;2024-01-15T12:09:21;19.55;;;12.40;;
32214;SDS011;18708;53.124;23.190;2024-01-15T12:11:50;15.95;;;10.63;;
32214;SDS011;18708;53.124;23.190;2024-01-15T12:14:20;15.98;;;10.40;;
32214;SDS011;18708;53.124;23.190;2024-01-15T12:16:47;18.25;;;11.52;;
32214;SDS011;18708;53.124;23.190;2024-01-15T12:19:13;20.25;;;10.82;;
32214;SDS011;18708;53.124;23.190;2024-01-15T12:21:40;18.33;;;10.43;;
32214;SDS011;18708;53.124;23.190;2024-01-15T12:24:08;17.55;;;11.35;;
32214;SDS011;18708;53.124;23.190;2024-01-15T12:26:36;18.15;;;10.18;;
32214;SDS011;18708;53.124;23.190;2024-01-15T12:29:02;19.85;;;11.65;;
32214;SDS011;18708;53.124;23.190;2024-01-15T12:31:29;20.40;;;11.90;;
32214;SDS011;18708;53.124;23.190;2024-01-15T12:33:55;19.65;;;10.50;;
32214;SDS011;18708;53.124;23.190;2024-01-15T12:36:21;17.85;;;10.82;;
32214;SDS011;18708;53.124;23.190;2024-01-15T12:38:47;18.85;;;12.20;;
32214;SDS011;18708;53.124;23.190;2024-01-15T12:41:12;19.98;;;11.10;;
32214;SDS011;18708;53.124;23.190;2024-01-15T12:43:38;20.50;;;11.45;;
32214;SDS011;18708;53.124;23.190;2024-01-15T12:46:05;20.55;;;11.20;;
32214;SDS011;18708;53.124;23.190;2024-01-15T12:48:31;18.08;;;10.93;;
32214;SDS011;18708;53.124;23.190;2024-01-15T12:50:57;16.52;;;10.73;;
32214;SDS011;18708;53.124;23.190;2024-01-15T12:53:22;20.73;;;12.05;;
32214;SDS011;18708;53.124;23.190;2024-01-15T12:55:48;19.98;;;12.10;;
32214;SDS011;18708;53.124;23.190;2024-01-15T12:58:14;19.48;;;11.95;;
32214;SDS011;18708;53.124;23.190;2024-01-15T13:00:39;29.02;;;15.70;;
32214;SDS011;18708;53.124;23.190;2024-01-15T13:03:05;26.27;;;13.80;;
32214;SDS011;18708;53.124;23.190;2024-01-15T13:05:32;38.22;;;18.48;;
32214;SDS011;18708;53.124;23.190;2024-01-15T13:08:01;15.57;;;10.85;;
32214;SDS011;18708;53.124;23.190;2024-01-15T13:10:28;15.40;;;10.23;;
32214;SDS011;18708;53.124;23.190;2024-01-15T13:12:55;15.48;;;10.38;;
32214;SDS011;18708;53.124;23.190;2024-01-15T13:15:21;26.85;;;16.17;;
32214;SDS011;18708;53.124;23.190;2024-01-15T13:17:46;19.40;;;11.77;;
32214;SDS011;18708;53.124;23.190;2024-01-15T13:20:12;15.30;;;10.02;;
32214;SDS011;18708;53.124;23.190;2024-01-15T13:22:38;13.63;;;9.57;;
32214;SDS011;18708;53.124;23.190;2024-01-15T13:25:05;17.40;;;10.38;;
32214;SDS011;18708;53.124;23.190;2024-01-15T13:27:32;17.65;;;11.10;;
32214;SDS011;18708;53.124;23.190;2024-01-15T13:30:00;20.02;;;13.15;;
32214;SDS011;18708;53.124;23.190;2024-01-15T13:32:27;16.38;;;11.02;;
32214;SDS011;18708;53.124;23.190;2024-01-15T13:34:56;19.58;;;10.40;;
32214;SDS011;18708;53.124;23.190;2024-01-15T13:37:22;19.38;;;10.98;;
32214;SDS011;18708;53.124;23.190;2024-01-15T13:39:51;20.13;;;12.05;;
32214;SDS011;18708;53.124;23.190;2024-01-15T13:42:17;22.42;;;13.35;;
32214;SDS011;18708;53.124;23.190;2024-01-15T13:44:43;24.63;;;13.63;;
32214;SDS011;18708;53.124;23.190;2024-01-15T13:47:11;28.10;;;15.40;;
32214;SDS011;18708;53.124;23.190;2024-01-15T13:49:37;23.13;;;13.15;;
32214;SDS011;18708;53.124;23.190;2024-01-15T13:52:03;21.30;;;13.82;;
32214;SDS011;18708;53.124;23.190;2024-01-15T13:54:29;21.88;;;13.18;;
32214;SDS011;18708;53.124;23.190;2024-01-15T13:56:57;22.52;;;13.27;;
32214;SDS011;18708;53.124;23.190;2024-01-15T13:59:24;27.45;;;18.23;;
32214;SDS011;18708;53.124;23.190;2024-01-15T14:01:50;19.20;;;11.75;;
32214;SDS011;18708;53.124;23.190;2024-01-15T14:04:15;23.95;;;12.02;;
32214;SDS011;18708;53.124;23.190;2024-01-15T14:06:41;22.33;;;13.93;;
32214;SDS011;18708;53.124;23.190;2024-01-15T14:09:07;21.00;;;13.48;;
32214;SDS011;18708;53.124;23.190;2024-01-15T14:11:36;19.33;;;12.52;;
32214;SDS011;18708;53.124;23.190;2024-01-15T14:14:02;19.63;;;12.27;;
32214;SDS011;18708;53.124;23.190;2024-01-15T14:16:28;22.10;;;14.38;;
32214;SDS011;18708;53.124;23.190;2024-01-15T14:18:54;22.33;;;11.95;;
32214;SDS011;18708;53.124;23.190;2024-01-15T14:21:19;18.50;;;12.35;;
32214;SDS011;18708;53.124;23.190;2024-01-15T14:23:45;18.58;;;11.23;;
32214;SDS011;18708;53.124;23.190;2024-01-15T14:26:11;22.48;;;13.02;;